Time;durP1;ratioP1;P1;durP2;ratioP2;P2;SDS_P1;SDS_P2;PMS_P1;PMS_P2;Temp;Humidity;BMP_temperature;BMP_pressure;BME280_temperature;BME280_humidity;BME280_pressure;Samples;Min_cycle;Max_cycle;Signal;HPM_P1;HPM_P2
2021/05/31 00:01:54;;;;;;;4.07;3.53;;;;;;;;;;5024353;28;20527;-83
2021/05/31 00:04:22;;;;;;;4.83;3.50;;;;;;;;;;5032239;28;20445;-84
2021/05/31 00:06:51;;;;;;;4.43;3.80;;;;;;;;;;5000985;28;20458;-86
2021/05/31 00:09:18;;;;;;;4.43;4.03;;;;;;;;;;5026329;28;20576;-84
2021/05/31 00:11:45;;;;;;;4.00;3.60;;;;;;;;;;5033756;28;20496;-86
2021/05/31 00:14:14;;;;;;;5.53;3.80;;;;;;;;;;5024177;28;20552;-86
2021/05/31 00:16:42;;;;;;;5.17;4.00;;;;;;;;;;5015887;28;20519;-88
2021/05/31 00:19:10;;;;;;;4.60;4.00;;;;;;;;;;5018823;28;20458;-85
2021/05/31 00:21:38;;;;;;;4.03;3.60;;;;;;;;;;5011393;28;20451;-89
2021/05/31 00:24:05;;;;;;;5.20;3.47;;;;;;;;;;4998745;28;20520;-84
2021/05/31 00:26:31;;;;;;;4.30;3.90;;;;;;;;;;5011160;28;20489;-86
2021/05/31 00:28:58;;;;;;;4.27;3.50;;;;;;;;;;5013382;28;20484;-89
2021/05/31 00:31:25;;;;;;;6.63;4.00;;;;;;;;;;5024976;28;20461;-88
2021/05/31 00:33:52;;;;;;;4.63;3.77;;;;;;;;;;5032957;28;20444;-84
2021/05/31 00:36:19;;;;;;;5.23;4.00;;;;;;;;;;5026645;28;20475;-82
2021/05/31 00:38:47;;;;;;;4.47;4.00;;;;;;;;;;5022941;28;21006;-82
2021/05/31 00:41:13;;;;;;;4.30;3.70;;;;;;;;;;5021559;28;20434;-83
2021/05/31 00:43:40;;;;;;;4.40;3.87;;;;;;;;;;5024136;28;20470;-88
2021/05/31 00:46:28;;;;;;;5.97;3.70;;;;;;;;;;5018131;28;20506;-85
2021/05/31 00:48:55;;;;;;;4.70;4.20;;;;;;;;;;4990509;28;20557;-87
2021/05/31 00:51:22;;;;;;;4.67;4.20;;;;;;;;;;5033299;28;20454;-84
2021/05/31 00:53:50;;;;;;;4.33;3.93;;;;;;;;;;5031023;28;20443;-85
2021/05/31 00:56:17;;;;;;;4.43;4.03;;;;;;;;;;5019142;28;20458;-83
2021/05/31 00:58:44;;;;;;;5.20;4.10;;;;;;;;;;5016029;28;20464;-88
2021/05/31 01:01:15;;;;;;;6.17;4.60;;;;;;;;;;5019659;28;20436;-82
2021/05/31 01:03:41;;;;;;;4.10;3.73;;;;;;;;;;5038435;28;20924;-86
2021/05/31 01:06:11;;;;;;;5.77;3.73;;;;;;;;;;5036714;28;20493;-84
2021/05/31 01:08:41;;;;;;;6.33;4.33;;;;;;;;;;5007749;28;20478;-86
2021/05/31 01:11:12;;;;;;;5.43;4.70;;;;;;;;;;5021025;28;20454;-82
2021/05/31 01:13:42;;;;;;;4.20;3.80;;;;;;;;;;5021018;28;20469;-83
2021/05/31 01:16:12;;;;;;;5.50;4.20;;;;;;;;;;5017541;28;20467;-87
2021/05/31 01:18:40;;;;;;;7.50;4.23;;;;;;;;;;5014108;28;20574;-88
2021/05/31 01:21:17;;;;;;;4.00;3.60;;;;;;;;;;5025163;28;20555;-84
2021/05/31 01:23:52;;;;;;;6.43;4.00;;;;;;;;;;5024189;28;20926;-84
2021/05/31 01:26:21;;;;;;;7.03;4.80;;;;;;;;;;5022178;28;20489;-83
2021/05/31 01:29:00;;;;;;;5.87;4.30;;;;;;;;;;5010583;28;20603;-86
2021/05/31 01:31:31;;;;;;;5.23;4.30;;;;;;;;;;5033357;28;20449;-85
2021/05/31 01:33:59;;;;;;;4.90;3.87;;;;;;;;;;5025435;28;20512;-86
2021/05/31 01:36:26;;;;;;;6.27;4.47;;;;;;;;;;5027321;28;20553;-84
2021/05/31 01:38:56;;;;;;;5.73;5.10;;;;;;;;;;5021489;28;20516;-85
2021/05/31 01:41:23;;;;;;;6.70;5.00;;;;;;;;;;5027371;28;20573;-83
2021/05/31 01:43:50;;;;;;;6.30;4.43;;;;;;;;;;5027958;28;20449;-84
2021/05/31 01:46:20;;;;;;;4.80;3.93;;;;;;;;;;5025360;28;20486;-84
2021/05/31 01:48:48;;;;;;;5.97;5.10;;;;;;;;;;5032194;28;20848;-88
2021/05/31 01:51:15;;;;;;;5.30;4.80;;;;;;;;;;5020670;28;20457;-84
2021/05/31 01:53:42;;;;;;;5.20;4.70;;;;;;;;;;5017364;28;20768;-85
2021/05/31 01:56:10;;;;;;;7.13;5.80;;;;;;;;;;5031141;28;20468;-88
2021/05/31 01:58:38;;;;;;;5.27;4.73;;;;;;;;;;5030624;28;20483;-87
2021/05/31 02:01:05;;;;;;;4.30;3.90;;;;;;;;;;5021000;28;20462;-87
2021/05/31 02:03:34;;;;;;;5.50;4.47;;;;;;;;;;5032517;28;20458;-86
2021/05/31 02:06:00;;;;;;;8.70;4.77;;;;;;;;;;5020999;28;20470;-87
2021/05/31 02:08:28;;;;;;;5.87;4.73;;;;;;;;;;5015481;28;20473;-83
2021/05/31 02:10:57;;;;;;;6.80;4.70;;;;;;;;;;5016148;28;20865;-83
2021/05/31 02:13:25;;;;;;;5.20;4.70;;;;;;;;;;5012624;28;20465;-83
2021/05/31 02:15:56;;;;;;;5.20;4.70;;;;;;;;;;5019142;28;20835;-84
2021/05/31 02:18:24;;;;;;;7.80;4.60;;;;;;;;;;5025489;28;20466;-86
2021/05/31 02:20:55;;;;;;;6.33;5.27;;;;;;;;;;5020254;28;20469;-85
2021/05/31 02:23:22;;;;;;;4.97;4.57;;;;;;;;;;5029715;28;20964;-87
2021/05/31 02:25:49;;;;;;;5.23;4.73;;;;;;;;;;5032347;28;20478;-83
2021/05/31 02:28:16;;;;;;;5.40;4.90;;;;;;;;;;5002167;28;21010;-84
2021/05/31 02:30:43;;;;;;;6.43;4.50;;;;;;;;;;5030778;28;20454;-87
2021/05/31 02:33:10;;;;;;;4.97;4.53;;;;;;;;;;5032252;28;20490;-84
2021/05/31 02:35:39;;;;;;;6.07;5.00;;;;;;;;;;5020385;28;20825;-87
2021/05/31 02:38:17;;;;;;;5.43;4.33;;;;;;;;;;5000038;28;20550;-85
2021/05/31 02:40:49;;;;;;;6.23;5.27;;;;;;;;;;5014947;28;20443;-83
2021/05/31 02:43:15;;;;;;;5.07;4.50;;;;;;;;;;5030837;28;20461;-87
2021/05/31 02:45:42;;;;;;;7.20;5.00;;;;;;;;;;5032230;28;20486;-84
2021/05/31 02:48:09;;;;;;;6.10;4.73;;;;;;;;;;5019223;28;20520;-86
2021/05/31 02:50:36;;;;;;;5.37;4.53;;;;;;;;;;5016060;28;20490;-85
2021/05/31 02:53:03;;;;;;;5.90;4.73;;;;;;;;;;5012025;28;20501;-84
2021/05/31 02:55:31;;;;;;;5.50;4.40;;;;;;;;;;5021898;28;20454;-87
2021/05/31 02:58:00;;;;;;;6.33;5.03;;;;;;;;;;5014467;28;20503;-85
2021/05/31 03:00:28;;;;;;;5.00;4.27;;;;;;;;;;5029099;28;20481;-83
2021/05/31 03:02:55;;;;;;;7.73;4.73;;;;;;;;;;5019458;28;20463;-88
2021/05/31 03:05:25;;;;;;;5.00;4.60;;;;;;;;;;5004884;28;20466;-86
2021/05/31 03:07:52;;;;;;;6.00;5.40;;;;;;;;;;5029607;28;20462;-86
2021/05/31 03:10:19;;;;;;;5.53;4.87;;;;;;;;;;5030772;28;20960;-87
2021/05/31 03:12:46;;;;;;;5.80;4.60;;;;;;;;;;5031634;28;20534;-88
2021/05/31 03:15:17;;;;;;;5.63;5.03;;;;;;;;;;5025731;28;20470;-88
2021/05/31 03:17:44;;;;;;;6.73;5.20;;;;;;;;;;5029016;28;20495;-85
2021/05/31 03:20:11;;;;;;;5.17;4.67;;;;;;;;;;5032706;28;21035;-87
2021/05/31 03:22:38;;;;;;;6.17;5.03;;;;;;;;;;5032503;28;20503;-85
2021/05/31 03:25:07;;;;;;;6.27;5.13;;;;;;;;;;5001131;28;20466;-87
2021/05/31 03:27:35;;;;;;;6.00;5.40;;;;;;;;;;5005181;28;20448;-89
2021/05/31 03:30:02;;;;;;;6.37;4.93;;;;;;;;;;5028730;28;20932;-83
2021/05/31 03:32:30;;;;;;;5.90;5.30;;;;;;;;;;5024111;28;20463;-84
2021/05/31 03:34:58;;;;;;;7.93;5.50;;;;;;;;;;5031749;28;20512;-84
2021/05/31 03:37:24;;;;;;;6.03;5.43;;;;;;;;;;5032379;28;20463;-84
2021/05/31 03:39:51;;;;;;;7.27;5.70;;;;;;;;;;5026606;28;20477;-85
2021/05/31 03:42:18;;;;;;;6.47;5.50;;;;;;;;;;5019490;28;20449;-86
2021/05/31 03:44:45;;;;;;;6.67;5.70;;;;;;;;;;5019587;28;20538;-83
2021/05/31 03:47:12;;;;;;;7.00;5.77;;;;;;;;;;5030185;28;20529;-88
2021/05/31 03:49:40;;;;;;;7.03;4.70;;;;;;;;;;5031370;28;20827;-89
2021/05/31 03:52:07;;;;;;;6.03;5.30;;;;;;;;;;5029980;28;20458;-85
2021/05/31 03:54:34;;;;;;;6.90;5.40;;;;;;;;;;5036061;28;20830;-86
2021/05/31 03:57:00;;;;;;;8.43;4.70;;;;;;;;;;5031732;28;20466;-84
2021/05/31 03:59:29;;;;;;;6.10;5.50;;;;;;;;;;5033507;28;20974;-87
2021/05/31 04:01:56;;;;;;;6.50;5.27;;;;;;;;;;5028699;28;20450;-87
2021/05/31 04:04:23;;;;;;;6.10;5.50;;;;;;;;;;5015287;28;20451;-84
2021/05/31 04:12:13;;;;;;;9.60;5.73;;;;;;;;;;5010705;28;20437;-88
2021/05/31 04:14:40;;;;;;;6.93;5.60;;;;;;;;;;5014178;28;20489;-89
2021/05/31 04:17:06;;;;;;;7.87;5.20;;;;;;;;;;5034185;28;20449;-88
2021/05/31 04:19:33;;;;;;;5.40;4.90;;;;;;;;;;5031310;28;20579;-84
2021/05/31 04:22:01;;;;;;;6.60;5.17;;;;;;;;;;5025821;28;20837;-83
2021/05/31 04:24:28;;;;;;;8.53;5.17;;;;;;;;;;5016401;28;20518;-83
2021/05/31 04:26:55;;;;;;;15.50;5.40;;;;;;;;;;5017015;28;20497;-86
2021/05/31 04:29:22;;;;;;;5.30;4.80;;;;;;;;;;5029697;28;20739;-88
2021/05/31 04:31:49;;;;;;;7.13;5.50;;;;;;;;;;5029172;28;20458;-84
2021/05/31 04:34:15;;;;;;;11.07;6.07;;;;;;;;;;5030876;28;20636;-88
2021/05/31 04:36:43;;;;;;;10.13;5.60;;;;;;;;;;5027947;28;20479;-87
2021/05/31 04:39:11;;;;;;;7.57;5.60;;;;;;;;;;5021137;28;20825;-85
2021/05/31 04:41:39;;;;;;;7.80;5.90;;;;;;;;;;5020014;28;20458;-89
2021/05/31 04:44:06;;;;;;;9.27;5.53;;;;;;;;;;5016325;28;20493;-90
2021/05/31 04:46:33;;;;;;;8.50;5.90;;;;;;;;;;5013242;28;20547;-90
2021/05/31 04:49:01;;;;;;;9.70;5.63;;;;;;;;;;4992996;28;20540;-88
2021/05/31 04:51:28;;;;;;;10.00;7.13;;;;;;;;;;5017022;28;20462;-85
2021/05/31 04:53:57;;;;;;;9.90;6.13;;;;;;;;;;4998832;28;20576;-83
2021/05/31 04:56:25;;;;;;;10.17;5.97;;;;;;;;;;5020425;28;20441;-85
2021/05/31 04:58:55;;;;;;;9.77;6.10;;;;;;;;;;5016135;28;20547;-88
2021/05/31 05:01:24;;;;;;;8.10;6.90;;;;;;;;;;5016637;28;20485;-89
2021/05/31 05:03:54;;;;;;;14.23;6.87;;;;;;;;;;5031145;28;20438;-90
2021/05/31 05:06:21;;;;;;;8.93;6.40;;;;;;;;;;5016744;28;20484;-88
2021/05/31 05:12:17;;;;;;;7.20;4.80;;;;;;;;;;4945021;28;20473;-87
2021/05/31 05:14:48;;;;;;;8.03;5.40;;;;;;;;;;5031162;28;20437;-86
2021/05/31 05:23:15;;;;;;;5.57;4.93;;;;;;;;;;5924188;22;20485;-85
2021/05/31 05:26:09;;;;;;;6.67;4.70;;;;;;;;;;4998697;28;20526;-87
2021/05/31 05:28:56;;;;;;;7.17;5.33;;;;;;;;;;5010514;28;20535;-86
2021/05/31 05:31:24;;;;;;;5.07;4.27;;;;;;;;;;5011174;28;20498;-85
2021/05/31 05:33:51;;;;;;;5.73;4.70;;;;;;;;;;5010705;28;20450;-86
2021/05/31 05:36:24;;;;;;;6.70;4.80;;;;;;;;;;5013911;28;20958;-87
2021/05/31 05:41:39;;;;;;;6.03;4.77;;;;;;;;;;5007693;28;20477;-87
2021/05/31 05:44:24;;;;;;;6.83;4.20;;;;;;;;;;4996230;28;21027;-88
2021/05/31 05:47:05;;;;;;;6.13;4.53;;;;;;;;;;5006057;28;20544;-84
2021/05/31 05:49:32;;;;;;;4.33;3.93;;;;;;;;;;5009999;28;20463;-86
2021/05/31 05:51:58;;;;;;;5.00;4.50;;;;;;;;;;5010533;28;20801;-84
2021/05/31 05:54:25;;;;;;;4.10;3.70;;;;;;;;;;5009494;28;20434;-84
2021/05/31 05:56:52;;;;;;;6.77;4.10;;;;;;;;;;5012922;28;20469;-91
2021/05/31 05:59:21;;;;;;;4.27;3.87;;;;;;;;;;5017129;28;20463;-92
2021/05/31 06:01:50;;;;;;;4.33;3.60;;;;;;;;;;5024869;28;20920;-89
2021/05/31 06:04:19;;;;;;;5.20;3.67;;;;;;;;;;5011655;28;20489;-86
2021/05/31 06:06:46;;;;;;;7.20;3.90;;;;;;;;;;5031779;28;20515;-83
2021/05/31 06:09:15;;;;;;;6.27;3.67;;;;;;;;;;5013553;28;20479;-78
2021/05/31 06:11:41;;;;;;;5.60;3.23;;;;;;;;;;5026925;28;20449;-81
2021/05/31 06:14:09;;;;;;;5.33;3.87;;;;;;;;;;5014872;28;20948;-79
2021/05/31 06:16:36;;;;;;;6.63;3.60;;;;;;;;;;4999805;28;20458;-82
2021/05/31 06:19:03;;;;;;;4.23;3.83;;;;;;;;;;5008178;28;20483;-80
2021/05/31 06:21:31;;;;;;;5.57;3.83;;;;;;;;;;5014992;28;20889;-85
2021/05/31 06:23:59;;;;;;;3.70;3.40;;;;;;;;;;5004177;28;20565;-85
2021/05/31 06:26:25;;;;;;;4.40;4.00;;;;;;;;;;5005003;28;20920;-83
2021/05/31 06:28:52;;;;;;;3.70;3.40;;;;;;;;;;5012198;28;20997;-84
2021/05/31 06:31:20;;;;;;;5.73;3.90;;;;;;;;;;5000078;28;20463;-78
2021/05/31 06:33:47;;;;;;;4.50;3.93;;;;;;;;;;5013710;28;20450;-81
2021/05/31 06:36:14;;;;;;;5.00;3.90;;;;;;;;;;5015500;28;20448;-86
2021/05/31 06:38:42;;;;;;;5.13;3.80;;;;;;;;;;5003890;28;20477;-87
2021/05/31 06:41:09;;;;;;;4.07;3.67;;;;;;;;;;5009894;28;20431;-86
2021/05/31 06:43:36;;;;;;;5.33;3.57;;;;;;;;;;5012192;28;20447;-89
2021/05/31 06:46:03;;;;;;;5.03;3.77;;;;;;;;;;4999213;28;20848;-85
2021/05/31 06:48:29;;;;;;;7.37;3.63;;;;;;;;;;5004168;28;20506;-82
2021/05/31 06:50:56;;;;;;;3.47;3.17;;;;;;;;;;5016251;28;20454;-79
2021/05/31 06:53:23;;;;;;;3.53;3.20;;;;;;;;;;5007466;28;20447;-78
2021/05/31 06:55:51;;;;;;;3.77;3.40;;;;;;;;;;4997360;28;20467;-79
2021/05/31 06:58:18;;;;;;;5.63;3.83;;;;;;;;;;5012100;28;20443;-81
2021/05/31 07:00:47;;;;;;;4.27;3.10;;;;;;;;;;5011431;28;20855;-78
2021/05/31 07:03:14;;;;;;;5.83;3.47;;;;;;;;;;5003398;28;20489;-80
2021/05/31 07:05:41;;;;;;;4.17;3.77;;;;;;;;;;5013641;28;20532;-80
2021/05/31 07:08:08;;;;;;;3.40;3.10;;;;;;;;;;5010022;28;21022;-85
2021/05/31 07:10:34;;;;;;;5.17;3.60;;;;;;;;;;5002233;28;20811;-86
2021/05/31 07:13:04;;;;;;;8.60;3.83;;;;;;;;;;5015864;28;20430;-88
2021/05/31 07:15:32;;;;;;;3.90;3.20;;;;;;;;;;5008262;28;20451;-87
2021/05/31 07:17:59;;;;;;;4.53;3.60;;;;;;;;;;5008308;28;20465;-85
2021/05/31 07:20:26;;;;;;;4.80;3.20;;;;;;;;;;5003481;28;20487;-86
2021/05/31 07:22:53;;;;;;;3.80;3.20;;;;;;;;;;5008912;28;20987;-84
2021/05/31 07:25:20;;;;;;;4.23;3.33;;;;;;;;;;5006899;28;20459;-81
2021/05/31 07:27:47;;;;;;;4.00;3.70;;;;;;;;;;4997860;28;20971;-84
2021/05/31 07:30:19;;;;;;;4.30;3.90;;;;;;;;;;5010182;28;20864;-82
2021/05/31 07:32:46;;;;;;;5.00;3.40;;;;;;;;;;5017891;28;20557;-81
2021/05/31 07:35:14;;;;;;;3.80;3.27;;;;;;;;;;5007567;28;20897;-85
2021/05/31 07:37:41;;;;;;;4.00;3.50;;;;;;;;;;5008565;28;20801;-82
2021/05/31 07:40:09;;;;;;;6.13;3.60;;;;;;;;;;5002816;28;20471;-81
2021/05/31 07:42:36;;;;;;;7.00;3.60;;;;;;;;;;5007156;28;20469;-81
2021/05/31 07:45:04;;;;;;;3.80;3.40;;;;;;;;;;5010942;28;20439;-81
2021/05/31 07:47:32;;;;;;;3.77;3.37;;;;;;;;;;4998331;28;20487;-85
2021/05/31 07:49:58;;;;;;;3.70;3.40;;;;;;;;;;4997556;28;20478;-78
2021/05/31 07:52:28;;;;;;;3.93;3.43;;;;;;;;;;5008042;28;20438;-81
2021/05/31 07:54:54;;;;;;;6.17;3.17;;;;;;;;;;5008730;28;20497;-78
2021/05/31 07:57:21;;;;;;;3.40;3.10;;;;;;;;;;5000279;28;20498;-78
2021/05/31 07:59:49;;;;;;;3.70;3.23;;;;;;;;;;5002895;28;20612;-79
2021/05/31 08:02:16;;;;;;;3.97;3.57;;;;;;;;;;5012158;28;21010;-78
2021/05/31 08:04:44;;;;;;;6.00;3.60;;;;;;;;;;5009250;28;20463;-77
2021/05/31 08:07:11;;;;;;;5.33;3.30;;;;;;;;;;5013103;28;20572;-84
2021/05/31 08:09:38;;;;;;;6.10;3.53;;;;;;;;;;5032296;28;20465;-83
2021/05/31 08:12:05;;;;;;;3.53;3.20;;;;;;;;;;5009379;28;20458;-80
2021/05/31 08:14:32;;;;;;;4.40;3.40;;;;;;;;;;5006850;28;20817;-81
2021/05/31 08:16:59;;;;;;;4.30;3.10;;;;;;;;;;5007665;28;20442;-83
2021/05/31 08:19:39;;;;;;;3.30;3.00;;;;;;;;;;5001431;28;20487;-86
2021/05/31 08:22:08;;;;;;;3.17;2.90;;;;;;;;;;5004917;28;20494;-86
2021/05/31 08:24:35;;;;;;;3.67;3.27;;;;;;;;;;5010670;28;20467;-83
2021/05/31 08:27:02;;;;;;;7.90;3.30;;;;;;;;;;5010929;28;20497;-84
2021/05/31 08:29:28;;;;;;;3.40;3.10;;;;;;;;;;5011577;28;20467;-84
2021/05/31 08:31:56;;;;;;;3.20;2.90;;;;;;;;;;5008832;28;20454;-83
2021/05/31 08:34:25;;;;;;;4.03;2.97;;;;;;;;;;5008803;28;20454;-83
2021/05/31 08:36:51;;;;;;;3.33;3.03;;;;;;;;;;5009834;28;20454;-84
2021/05/31 08:39:20;;;;;;;4.23;2.90;;;;;;;;;;5005603;28;20454;-86
2021/05/31 08:41:47;;;;;;;3.97;2.87;;;;;;;;;;5013481;28;20709;-83
2021/05/31 08:44:13;;;;;;;3.67;2.97;;;;;;;;;;5009890;28;20510;-81
2021/05/31 08:46:40;;;;;;;3.40;3.07;;;;;;;;;;5001191;28;20489;-82
2021/05/31 08:49:07;;;;;;;4.37;3.60;;;;;;;;;;5000995;28;20475;-83
2021/05/31 08:51:34;;;;;;;4.40;3.07;;;;;;;;;;5007767;28;20443;-86
2021/05/31 08:54:01;;;;;;;3.43;3.13;;;;;;;;;;5006677;28;20451;-85
2021/05/31 08:56:31;;;;;;;3.80;3.40;;;;;;;;;;4998727;28;20817;-85
2021/05/31 08:58:58;;;;;;;4.50;3.37;;;;;;;;;;5022356;28;20473;-84
2021/05/31 09:01:51;;;;;;;4.20;3.67;;;;;;;;;;5031536;28;20442;-86
2021/05/31 09:04:18;;;;;;;4.37;3.70;;;;;;;;;;5004602;28;20471;-88
2021/05/31 09:06:54;;;;;;;4.70;3.10;;;;;;;;;;5017325;28;20482;-86
2021/05/31 09:12:29;;;;;;;3.63;3.33;;;;;;;;;;4965246;28;20459;-87
2021/05/31 09:14:56;;;;;;;4.53;3.90;;;;;;;;;;5005228;28;20546;-87
2021/05/31 09:17:26;;;;;;;3.80;3.13;;;;;;;;;;5033810;28;20449;-91
2021/05/31 09:22:55;;;;;;;3.57;3.27;;;;;;;;;;5018726;28;20488;-82
2021/05/31 09:25:24;;;;;;;4.13;3.60;;;;;;;;;;5011897;28;20542;-81
2021/05/31 09:27:53;;;;;;;5.30;3.63;;;;;;;;;;5011846;28;20461;-79
2021/05/31 09:30:21;;;;;;;3.80;3.23;;;;;;;;;;4994538;28;20570;-80
2021/05/31 09:32:51;;;;;;;5.43;3.80;;;;;;;;;;5001309;28;20502;-81
2021/05/31 09:35:21;;;;;;;4.17;3.67;;;;;;;;;;5011838;28;20467;-79
2021/05/31 09:37:49;;;;;;;4.67;3.30;;;;;;;;;;5007186;28;20833;-80
2021/05/31 09:40:18;;;;;;;3.90;3.50;;;;;;;;;;5009400;28;20837;-82
2021/05/31 09:42:59;;;;;;;3.70;3.40;;;;;;;;;;5005114;28;20455;-86
2021/05/31 09:45:29;;;;;;;5.67;3.63;;;;;;;;;;5016685;28;20986;-85
2021/05/31 09:47:58;;;;;;;4.23;3.83;;;;;;;;;;5026139;28;20466;-80
2021/05/31 09:50:26;;;;;;;4.30;3.90;;;;;;;;;;5007585;28;20486;-84
2021/05/31 09:53:03;;;;;;;4.90;4.50;;;;;;;;;;5016523;28;20450;-81
2021/05/31 09:55:31;;;;;;;5.30;3.83;;;;;;;;;;5017050;28;20481;-83
2021/05/31 09:57:58;;;;;;;5.30;3.80;;;;;;;;;;5008533;28;20447;-85
2021/05/31 10:00:29;;;;;;;9.27;4.73;;;;;;;;;;5032674;28;20465;-83
2021/05/31 10:03:02;;;;;;;6.73;4.20;;;;;;;;;;5011485;28;20447;-82
2021/05/31 10:05:36;;;;;;;5.50;4.00;;;;;;;;;;5016974;28;20468;-81
2021/05/31 10:08:15;;;;;;;9.23;4.43;;;;;;;;;;5034638;28;20452;-80
2021/05/31 10:10:43;;;;;;;5.80;4.20;;;;;;;;;;5013620;28;20455;-81
2021/05/31 10:13:10;;;;;;;9.40;4.83;;;;;;;;;;5000572;28;20773;-82
2021/05/31 10:15:40;;;;;;;5.00;4.37;;;;;;;;;;5015864;28;20464;-81
2021/05/31 10:18:08;;;;;;;6.60;4.97;;;;;;;;;;5027829;28;20462;-79
2021/05/31 10:20:36;;;;;;;5.07;4.53;;;;;;;;;;5011418;28;20464;-80
2021/05/31 10:23:04;;;;;;;6.30;3.80;;;;;;;;;;5030324;28;20508;-80
2021/05/31 10:25:31;;;;;;;5.07;4.47;;;;;;;;;;5008718;28;20463;-81
2021/05/31 10:28:08;;;;;;;6.10;4.57;;;;;;;;;;5013889;28;20458;-81
2021/05/31 10:30:40;;;;;;;6.07;4.20;;;;;;;;;;5013091;28;20461;-81
2021/05/31 10:33:13;;;;;;;5.50;4.37;;;;;;;;;;5011479;28;20466;-80
2021/05/31 10:35:40;;;;;;;6.40;4.20;;;;;;;;;;5001071;28;20463;-81
2021/05/31 10:38:11;;;;;;;5.23;4.70;;;;;;;;;;5010870;28;20473;-81
2021/05/31 10:40:41;;;;;;;4.70;4.00;;;;;;;;;;5019125;28;20457;-79
2021/05/31 10:43:09;;;;;;;5.37;4.27;;;;;;;;;;5008445;28;20451;-79
2021/05/31 10:45:36;;;;;;;7.97;4.33;;;;;;;;;;5000993;28;20907;-79
2021/05/31 10:48:12;;;;;;;5.27;4.17;;;;;;;;;;5012216;28;20510;-79
2021/05/31 10:50:41;;;;;;;4.57;4.17;;;;;;;;;;5009496;28;20430;-80
2021/05/31 10:53:08;;;;;;;5.63;4.20;;;;;;;;;;5001529;28;20455;-78
2021/05/31 10:55:36;;;;;;;9.53;4.97;;;;;;;;;;5000380;28;20902;-79
2021/05/31 10:58:03;;;;;;;4.80;4.23;;;;;;;;;;5011228;28;20873;-79
2021/05/31 11:00:33;;;;;;;6.80;4.30;;;;;;;;;;5011903;28;20493;-79
2021/05/31 11:03:04;;;;;;;4.77;4.37;;;;;;;;;;5011435;28;20459;-79
2021/05/31 11:05:32;;;;;;;4.93;4.47;;;;;;;;;;5009818;28;20443;-80
2021/05/31 11:08:00;;;;;;;4.53;4.13;;;;;;;;;;5011856;28;20451;-79
2021/05/31 11:10:30;;;;;;;4.40;4.00;;;;;;;;;;5008485;28;20479;-80
2021/05/31 11:12:57;;;;;;;5.90;4.60;;;;;;;;;;5013927;28;21155;-81
2021/05/31 11:15:34;;;;;;;5.53;4.33;;;;;;;;;;5019199;28;20462;-80
2021/05/31 11:18:01;;;;;;;4.80;4.40;;;;;;;;;;5009879;28;20541;-81
2021/05/31 11:20:29;;;;;;;4.50;4.00;;;;;;;;;;5005851;28;20501;-80
2021/05/31 11:22:57;;;;;;;4.93;4.07;;;;;;;;;;5008710;28;20526;-79
2021/05/31 11:25:26;;;;;;;4.27;3.90;;;;;;;;;;5010657;28;21592;-79
2021/05/31 11:27:54;;;;;;;5.43;4.93;;;;;;;;;;5005975;28;20490;-78
2021/05/31 11:30:23;;;;;;;6.10;4.37;;;;;;;;;;5009789;28;20482;-80
2021/05/31 11:32:50;;;;;;;5.30;4.80;;;;;;;;;;5008278;28;20459;-83
2021/05/31 11:35:17;;;;;;;5.73;4.10;;;;;;;;;;5003172;28;20517;-85
2021/05/31 11:37:44;;;;;;;7.40;4.10;;;;;;;;;;5011567;28;20437;-82
2021/05/31 11:40:16;;;;;;;4.27;3.57;;;;;;;;;;5005529;28;20980;-79
2021/05/31 11:42:46;;;;;;;5.13;4.63;;;;;;;;;;5011444;28;20458;-81
2021/05/31 11:45:13;;;;;;;4.23;3.87;;;;;;;;;;5007071;28;20443;-80
2021/05/31 11:47:41;;;;;;;5.80;5.20;;;;;;;;;;5009098;28;20490;-80
2021/05/31 11:50:16;;;;;;;6.00;4.87;;;;;;;;;;5007621;28;20486;-81
2021/05/31 11:52:44;;;;;;;5.57;4.30;;;;;;;;;;5011491;28;20508;-81
2021/05/31 11:55:15;;;;;;;4.90;4.33;;;;;;;;;;5010463;28;20985;-81
2021/05/31 11:57:42;;;;;;;5.00;4.50;;;;;;;;;;5011200;28;20469;-81
2021/05/31 12:00:11;;;;;;;7.03;4.50;;;;;;;;;;5013777;28;20546;-83
2021/05/31 12:02:39;;;;;;;4.67;4.00;;;;;;;;;;5006219;28;20459;-82
2021/05/31 12:05:06;;;;;;;5.33;4.83;;;;;;;;;;5012168;28;20454;-81
2021/05/31 12:07:33;;;;;;;4.93;4.10;;;;;;;;;;5008168;28;20478;-81
2021/05/31 12:10:02;;;;;;;4.57;3.90;;;;;;;;;;5010181;28;20471;-82
2021/05/31 12:12:29;;;;;;;5.40;4.43;;;;;;;;;;5011734;28;20482;-82
2021/05/31 12:14:56;;;;;;;4.20;3.80;;;;;;;;;;5009934;28;20462;-82
2021/05/31 12:17:26;;;;;;;6.03;3.67;;;;;;;;;;5010831;28;20466;-82
2021/05/31 12:19:53;;;;;;;4.97;4.00;;;;;;;;;;5007834;28;20482;-81
2021/05/31 12:22:21;;;;;;;5.00;3.90;;;;;;;;;;5013607;28;20465;-85
2021/05/31 12:24:49;;;;;;;4.90;4.00;;;;;;;;;;5011815;28;20565;-83
2021/05/31 12:27:21;;;;;;;4.00;3.70;;;;;;;;;;4999025;28;20482;-82
2021/05/31 12:29:48;;;;;;;3.87;3.50;;;;;;;;;;5008675;28;20465;-85
2021/05/31 12:32:16;;;;;;;4.70;4.20;;;;;;;;;;5010309;28;20451;-83
2021/05/31 12:34:45;;;;;;;4.27;3.97;;;;;;;;;;5008308;28;20463;-82
2021/05/31 12:37:13;;;;;;;5.80;3.93;;;;;;;;;;5006301;28;20555;-82
2021/05/31 12:39:41;;;;;;;5.20;4.00;;;;;;;;;;5009994;28;20546;-83
2021/05/31 12:42:08;;;;;;;6.00;4.10;;;;;;;;;;4996767;28;20447;-83
2021/05/31 12:44:35;;;;;;;6.33;4.20;;;;;;;;;;5004620;28;20463;-82
2021/05/31 12:47:06;;;;;;;5.03;3.80;;;;;;;;;;5009207;28;20477;-83
2021/05/31 12:49:33;;;;;;;5.30;4.00;;;;;;;;;;5009628;28;20481;-83
2021/05/31 12:52:01;;;;;;;4.23;3.60;;;;;;;;;;5007736;28;20508;-82
2021/05/31 12:54:29;;;;;;;6.53;3.80;;;;;;;;;;5006057;28;20458;-82
2021/05/31 12:57:07;;;;;;;5.17;4.00;;;;;;;;;;5009222;28;20886;-82
2021/05/31 12:59:34;;;;;;;4.53;3.60;;;;;;;;;;5012706;28;20524;-83
2021/05/31 13:02:00;;;;;;;4.13;3.80;;;;;;;;;;5007672;28;20455;-81
2021/05/31 13:04:28;;;;;;;4.43;3.93;;;;;;;;;;5003479;28;20686;-83
2021/05/31 13:06:55;;;;;;;4.60;4.20;;;;;;;;;;5008083;28;20494;-83
2021/05/31 13:09:24;;;;;;;4.17;3.77;;;;;;;;;;5014614;28;20467;-81
2021/05/31 13:11:51;;;;;;;4.63;3.47;;;;;;;;;;5011585;28;21021;-82
2021/05/31 13:14:19;;;;;;;4.20;3.63;;;;;;;;;;5013617;28;21165;-82
2021/05/31 13:16:55;;;;;;;4.60;4.20;;;;;;;;;;5012635;28;20466;-82
2021/05/31 13:19:23;;;;;;;5.03;3.80;;;;;;;;;;5007789;28;20733;-83
2021/05/31 13:21:57;;;;;;;5.27;4.07;;;;;;;;;;5034024;28;20445;-81
2021/05/31 13:24:28;;;;;;;4.67;4.10;;;;;;;;;;4996106;28;20565;-81
2021/05/31 13:26:55;;;;;;;5.37;4.00;;;;;;;;;;5014646;28;20890;-81
2021/05/31 13:29:22;;;;;;;4.60;3.57;;;;;;;;;;5012859;28;20482;-81
2021/05/31 13:31:49;;;;;;;5.37;3.97;;;;;;;;;;5002040;28;21087;-83
2021/05/31 13:34:16;;;;;;;4.10;3.80;;;;;;;;;;5005799;28;20952;-81
2021/05/31 13:36:42;;;;;;;5.63;4.63;;;;;;;;;;5004000;28;20844;-81
2021/05/31 13:39:10;;;;;;;4.37;3.87;;;;;;;;;;5014153;28;20971;-80
2021/05/31 13:41:40;;;;;;;10.10;4.20;;;;;;;;;;5016397;28;20461;-79
2021/05/31 13:44:09;;;;;;;4.13;3.83;;;;;;;;;;5006075;28;20985;-84
2021/05/31 13:46:36;;;;;;;4.70;3.80;;;;;;;;;;5011076;28;20487;-80
2021/05/31 13:49:03;;;;;;;4.03;3.60;;;;;;;;;;5009404;28;21007;-79
2021/05/31 13:51:30;;;;;;;4.63;3.93;;;;;;;;;;5009833;28;20451;-83
2021/05/31 13:53:58;;;;;;;4.27;3.87;;;;;;;;;;5010317;28;20447;-79
2021/05/31 13:56:24;;;;;;;4.00;3.60;;;;;;;;;;5002385;28;20893;-80
2021/05/31 13:58:53;;;;;;;5.80;4.27;;;;;;;;;;5007876;28;20521;-82
2021/05/31 14:01:19;;;;;;;4.13;3.73;;;;;;;;;;5008336;28;20463;-80
2021/05/31 14:03:46;;;;;;;5.27;4.33;;;;;;;;;;5010272;28;20447;-82
2021/05/31 14:06:13;;;;;;;4.10;3.80;;;;;;;;;;5009537;28;20475;-81
2021/05/31 14:08:40;;;;;;;3.90;3.50;;;;;;;;;;5003822;28;20828;-81
2021/05/31 14:11:14;;;;;;;4.40;4.00;;;;;;;;;;5003672;28;20483;-80
2021/05/31 14:13:41;;;;;;;3.97;3.50;;;;;;;;;;5006762;28;20498;-80
2021/05/31 14:16:12;;;;;;;4.33;3.90;;;;;;;;;;5009362;28;20538;-80
2021/05/31 14:18:41;;;;;;;4.53;4.00;;;;;;;;;;5012458;28;20490;-81
2021/05/31 14:21:08;;;;;;;4.43;4.03;;;;;;;;;;5012653;28;20462;-82
2021/05/31 14:23:34;;;;;;;4.43;3.73;;;;;;;;;;5013383;28;20566;-81
2021/05/31 14:26:01;;;;;;;3.67;3.30;;;;;;;;;;4999128;28;20821;-81
2021/05/31 14:28:28;;;;;;;3.70;3.40;;;;;;;;;;5012762;28;21424;-80
2021/05/31 14:30:55;;;;;;;3.47;3.17;;;;;;;;;;5015483;28;20477;-79
2021/05/31 14:33:23;;;;;;;4.10;3.70;;;;;;;;;;5009514;28;20459;-82
2021/05/31 14:35:50;;;;;;;3.67;3.20;;;;;;;;;;5010422;28;21025;-81
2021/05/31 14:38:17;;;;;;;3.93;3.53;;;;;;;;;;5011305;28;20443;-83
2021/05/31 14:40:43;;;;;;;3.83;3.53;;;;;;;;;;5011027;28;20469;-81
2021/05/31 14:43:10;;;;;;;5.00;3.80;;;;;;;;;;5002541;28;20463;-81
2021/05/31 14:45:37;;;;;;;3.87;3.47;;;;;;;;;;5001365;28;20448;-82
2021/05/31 14:48:05;;;;;;;4.50;3.40;;;;;;;;;;5006498;28;20493;-80
2021/05/31 14:50:34;;;;;;;4.67;3.60;;;;;;;;;;5007065;28;20471;-82
2021/05/31 14:53:01;;;;;;;4.07;3.40;;;;;;;;;;5014116;28;20454;-81
2021/05/31 14:55:28;;;;;;;5.00;3.80;;;;;;;;;;5011975;28;20435;-80
2021/05/31 14:57:54;;;;;;;3.57;3.27;;;;;;;;;;5008300;28;20971;-83
2021/05/31 15:00:22;;;;;;;5.53;3.20;;;;;;;;;;5009462;28;21074;-81
2021/05/31 15:02:49;;;;;;;4.73;4.10;;;;;;;;;;5011554;28;20877;-83
2021/05/31 15:05:17;;;;;;;4.40;3.53;;;;;;;;;;5003588;28;20455;-83
2021/05/31 15:07:46;;;;;;;3.90;3.50;;;;;;;;;;5000397;28;20501;-82
2021/05/31 15:10:14;;;;;;;6.90;4.23;;;;;;;;;;5011315;28;20478;-80
2021/05/31 15:12:41;;;;;;;3.83;3.37;;;;;;;;;;5010219;28;20920;-80
2021/05/31 15:15:08;;;;;;;5.23;3.50;;;;;;;;;;5002961;28;20461;-83